Latest Weather Observations for Mount Lofty

IDS60801

Issued at 8:02 pm CST Sunday 25 June 2017 (issued every 30 minutes, with the page automatically refreshed every 10 minutes)

About weather observations | Map of weather stations | Latest weather observations for SA | Other Formats
Station Details ID: 023842 Name: MOUNT LOFTY Lat: -34.98 Lon: 138.71 Height: 685.0 m
Data from the previous 72 hours. | See also: Recent months at Mount Lofty
Date/Time
CST
Temp
°C
App
Temp
°C
Dew
Point
°C
Rel
Hum
%
Delta-T
°C
Wind Press
QNH
hPa
Press
MSL
hPa
Rain since
9am
mm
Dir  Spd
km/h
Gust
km/h
Spd
kts
Gust
kts
25/08:00pm 7.1 5.0 6.8 98 0.1 W 7 17 4 9 - - 2.6
25/07:30pm 7.0 5.1 6.7 98 0.1 W 6 11 3 6 - - 2.0
25/07:00pm 6.8 4.7 6.5 98 0.1 WNW 7 11 4 6 - - 1.8
25/06:30pm 6.6 4.6 6.3 98 0.1 WNW 6 9 3 5 - - 1.8
25/06:00pm 6.5 4.5 6.2 98 0.1 W 6 11 3 6 - - 1.8
25/05:30pm 6.2 3.9 5.8 97 0.2 W 7 15 4 8 - - 1.8
25/05:00pm 6.8 4.3 6.5 98 0.1 W 9 17 5 9 - - 1.8
25/04:30pm 7.0 4.9 6.7 98 0.1 W 7 15 4 8 - - 1.8
25/04:00pm 7.0 4.9 6.7 98 0.1 W 7 15 4 8 - - 1.2
25/03:30pm 7.0 4.9 6.7 98 0.1 W 7 17 4 9 - - 1.2
25/03:00pm 7.2 5.2 6.9 98 0.1 W 7 15 4 8 - - 1.2
25/02:30pm 7.3 5.3 7.0 98 0.1 W 7 15 4 8 - - 1.0
25/02:00pm 7.2 5.2 6.9 98 0.1 W 7 17 4 9 - - 1.0
25/01:30pm 7.5 5.7 7.2 98 0.1 WSW 6 15 3 8 - - 0.6
25/01:00pm 8.3 6.7 8.0 98 0.1 W 6 11 3 6 - - 0.2
25/12:30pm 7.7 6.0 7.4 98 0.1 WNW 6 13 3 7 - - 0.2
25/12:00pm 7.6 5.6 7.3 98 0.1 W 7 17 4 9 - - 0.2
25/11:30am 7.8 5.5 7.5 98 0.1 WNW 9 15 5 8 - - 0.0
25/11:00am 8.0 6.1 7.7 98 0.1 WNW 7 13 4 7 - - 0.0
25/10:30am 7.8 5.9 7.5 98 0.1 WNW 7 15 4 8 - - 0.0
25/10:00am 8.0 6.1 7.7 98 0.1 WNW 7 13 4 7 - - 0.0
25/09:30am 7.9 6.2 7.6 98 0.1 WNW 6 11 3 6 - - 0.0
25/09:00am 7.6 5.6 7.3 98 0.1 W 7 13 4 7 - - 0.0
25/08:30am 7.5 5.7 7.2 98 0.1 W 6 9 3 5 - - 0.0
25/08:00am 7.4 5.4 7.1 98 0.1 W 7 13 4 7 - - 0.0
25/07:30am 7.2 5.2 6.9 98 0.1 WNW 7 19 4 10 - - 0.0
25/07:00am 7.3 5.5 7.0 98 0.1 W 6 15 3 8 - - 0.0
25/06:30am 7.5 5.7 7.2 98 0.1 W 6 11 3 6 - - 0.0
25/06:00am 7.6 5.6 7.3 98 0.1 W 7 13 4 7 - - 0.0
25/05:30am 7.5 5.5 7.2 98 0.1 W 7 15 4 8 - - 0.0
25/05:00am 7.4 5.0 7.0 97 0.2 W 9 17 5 9 - - 0.0
25/04:30am 7.6 5.2 7.2 97 0.2 WNW 9 20 5 11 - - 0.0
25/04:00am 7.7 5.0 7.3 97 0.2 WNW 11 24 6 13 - - 0.0
25/03:30am 7.2 4.0 6.8 97 0.2 WNW 13 19 7 10 - - 0.0
25/03:00am 8.0 5.4 7.6 97 0.2 WNW 11 20 6 11 - - 0.0
25/02:30am 8.2 6.4 7.8 97 0.2 WNW 7 13 4 7 - - 0.0
25/02:00am 8.2 6.6 7.8 97 0.2 W 6 9 3 5 - - 0.0
25/01:30am 8.1 6.8 7.5 96 0.3 W 4 7 2 4 - - 0.0
25/01:00am 8.1 6.8 7.5 96 0.3 W 4 6 2 3 - - 0.0
25/12:30am 8.1 6.7 7.3 95 0.4 W 4 6 2 3 - - 0.0
25/12:00am 7.6 6.4 6.4 92 0.6 W 2 6 1 3 - - 0.0
 
Date/Time
CST
Temp
°C
App
Temp
°C
Dew
Point
°C
Rel
Hum
%
Delta-T
°C
Wind Press
QNH
hPa
Press
MSL
hPa
Rain since
9am
mm
Dir  Spd
km/h
Gust
km/h
Spd
kts
Gust
kts
24/11:30pm 7.7 6.0 5.7 87 0.9 W 4 6 2 3 - - 0.0
24/11:00pm 8.3 6.6 5.8 84 1.2 W 4 6 2 3 - - 0.0
24/10:30pm 8.2 7.1 5.3 82 1.4 CALM 0 0 0 0 - - 0.0
24/10:00pm 8.3 7.2 5.2 81 1.4 CALM 0 2 0 1 - - 0.0
24/09:30pm 8.3 6.9 5.4 82 1.4 W 2 4 1 2 - - 0.0
24/09:00pm 7.8 6.3 4.9 82 1.3 W 2 2 1 1 - - 0.0
24/08:30pm 7.9 6.7 4.8 81 1.4 CALM 0 0 0 0 - - 0.0
24/08:00pm 8.2 6.7 5.0 80 1.5 W 2 2 1 1 - - 0.0
24/07:30pm 8.1 6.6 5.0 81 1.4 WSW 2 4 1 2 - - 0.0
24/07:00pm 8.0 6.9 4.9 81 1.4 CALM 0 0 0 0 - - 0.0
24/06:30pm 8.4 6.6 5.5 82 1.4 WSW 4 6 2 3 - - 0.0
24/06:00pm 8.0 6.9 5.1 82 1.3 CALM 0 0 0 0 - - 0.0
24/05:30pm 8.8 7.4 5.4 79 1.6 WSW 2 6 1 3 - - 0.0
24/05:00pm 10.0 9.0 5.8 75 2.0 CALM 0 2 0 1 - - 0.0
24/04:30pm 11.2 9.9 5.9 70 2.6 W 2 6 1 3 - - 0.0
24/04:00pm 11.5 9.4 5.6 67 2.8 W 6 9 3 5 - - 0.0
24/03:30pm 11.7 9.6 5.8 67 2.9 W 6 13 3 7 - - 0.0
24/03:00pm 11.6 9.5 5.9 68 2.8 W 6 11 3 6 - - 0.0
24/02:30pm 12.1 9.9 6.4 68 2.8 W 7 11 4 6 - - 0.0
24/02:00pm 11.9 10.0 6.8 71 2.5 WNW 6 9 3 5 - - 0.0
24/01:30pm 10.7 8.7 6.1 73 2.2 WNW 6 11 3 6 - - 0.0
24/01:00pm 12.3 10.5 7.2 71 2.6 W 6 9 3 5 - - 0.0
24/12:30pm 11.6 9.7 6.7 72 2.4 W 6 11 3 6 - - 0.0
24/12:00pm 11.1 9.4 7.4 78 1.8 WNW 6 9 3 5 - - 0.0
24/11:30am 11.0 9.8 6.6 74 2.2 WNW 2 6 1 3 - - 0.0
24/11:00am 11.0 9.9 7.1 77 1.9 W 2 4 1 2 - - 0.0
24/10:30am 11.2 10.6 7.3 77 1.9 CALM 0 2 0 1 - - 0.0
24/10:00am 10.3 9.7 9.1 92 0.6 SSW 2 6 1 3 - - 0.0
24/09:30am 8.3 7.4 7.7 96 0.3 E 2 6 1 3 - - 0.0
24/09:00am 7.7 5.7 7.1 96 0.3 ESE 7 9 4 5 - - 0.0
24/08:30am 7.6 5.6 6.9 95 0.3 ESE 7 9 4 5 - - 0.0
24/08:00am 7.5 5.6 6.6 94 0.4 ESE 6 7 3 4 - - 0.0
24/07:30am 6.9 5.2 5.7 92 0.6 SSW 4 6 2 3 - - 0.0
24/07:00am 7.0 6.2 6.3 95 0.3 CALM 0 4 0 2 - - 0.0
24/06:30am 7.2 5.6 6.5 95 0.3 SE 4 6 2 3 - - 0.0
24/06:00am 7.2 5.6 6.5 95 0.3 SSE 4 9 2 5 - - 0.0
24/05:30am 7.2 5.6 6.5 95 0.3 SSE 4 7 2 4 - - 0.0
24/05:00am 7.2 6.4 6.3 94 0.4 CALM 0 6 0 3 - - 0.0
24/04:30am 6.9 6.0 6.2 95 0.3 CALM 0 0 0 0 - - 0.0
24/04:00am 7.5 6.4 6.8 95 0.3 SSE 2 4 1 2 - - 0.0
24/03:30am 7.4 6.2 6.5 94 0.4 SSE 2 4 1 2 - - 0.0
24/03:00am 7.5 6.2 6.1 91 0.7 SSE 2 6 1 3 - - 0.0
24/02:30am 8.2 6.9 6.2 87 1.0 S 2 4 1 2 - - 0.0
24/02:00am 8.2 7.3 6.2 87 1.0 CALM 0 0 0 0 - - 0.0
24/01:30am 7.9 7.0 6.0 88 0.9 CALM 0 0 0 0 - - 0.0
24/01:00am 7.9 6.5 5.7 86 1.0 W 2 4 1 2 - - 0.0
24/12:30am 8.0 6.3 6.1 88 0.9 WNW 4 6 2 3 - - 0.0
24/12:00am 8.3 6.8 6.6 89 0.8 WSW 4 6 2 3 - - 0.0
 
Date/Time
CST
Temp
°C
App
Temp
°C
Dew
Point
°C
Rel
Hum
%
Delta-T
°C
Wind Press
QNH
hPa
Press
MSL
hPa
Rain since
9am
mm
Dir  Spd
km/h
Gust
km/h
Spd
kts
Gust
kts
23/11:30pm 8.3 6.6 5.9 85 1.1 WSW 4 6 2 3 - - 0.0
23/11:00pm 8.5 6.3 3.6 71 2.2 SW 4 6 2 3 - - 0.0
23/10:30pm 9.0 7.2 5.6 79 1.6 SSW 4 7 2 4 - - 0.0
23/10:00pm 8.9 7.4 6.7 86 1.1 SW 4 7 2 4 - - 0.0
23/09:30pm 9.0 6.9 5.7 80 1.6 WSW 6 7 3 4 - - 0.0
23/09:00pm 9.3 7.1 3.5 67 2.6 SW 4 9 2 5 - - 0.0
23/08:30pm 9.2 6.8 2.1 61 3.1 SW 4 9 2 5 - - 0.0
23/08:00pm 8.5 6.1 2.1 64 2.8 WSW 4 4 2 2 - - 0.0
23/07:30pm 9.0 6.7 2.8 65 2.7 WSW 4 7 2 4 - - 0.0
23/07:00pm 8.6 6.6 2.4 65 2.7 W 2 4 1 2 - - 0.0
23/06:30pm 9.1 7.1 2.4 63 2.9 W 2 2 1 1 - - 0.0
23/06:00pm 9.0 6.7 3.0 66 2.7 WSW 4 6 2 3 - - 0.0
23/05:30pm 8.8 7.0 3.2 68 2.5 W 2 4 1 2 - - 0.0
23/05:00pm 9.1 6.6 3.5 68 2.5 NW 6 6 3 3 - - 0.0
23/04:30pm 9.9 8.4 4.9 71 2.3 WNW 2 6 1 3 - - 0.0
23/04:00pm 10.7 8.8 5.0 68 2.7 WNW 4 6 2 3 - - 0.0
23/03:30pm 10.8 8.8 4.3 64 3.0 WNW 4 7 2 4 - - 0.0
23/03:00pm 11.4 9.0 4.4 62 3.3 WNW 6 9 3 5 - - 0.0
23/02:30pm 12.2 9.5 3.9 57 3.9 WNW 7 13 4 7 - - 0.0
23/02:00pm 11.5 9.0 4.7 63 3.2 NW 7 11 4 6 - - 0.0
23/01:30pm 11.3 8.9 4.3 62 3.3 WNW 6 9 3 5 - - 0.0
23/01:00pm 12.1 8.3 3.9 57 3.8 NW 13 20 7 11 - - 0.0
23/12:30pm 12.2 9.2 4.2 58 3.8 WNW 9 15 5 8 - - 0.0
23/12:00pm 12.1 8.4 2.3 51 4.4 WNW 11 22 6 12 - - 0.0
23/11:30am 10.9 7.7 3.0 58 3.6 NW 9 19 5 10 - - 0.0
23/11:00am 11.2 8.0 3.3 58 3.6 WNW 9 13 5 7 - - 0.0
23/10:30am 10.7 7.8 4.4 65 2.9 WNW 9 13 5 7 - - 0.0
23/10:00am 9.8 7.2 4.2 68 2.6 NW 7 17 4 9 - - 0.0
23/09:30am 8.9 5.9 3.9 71 2.3 NW 9 17 5 9 - - 0.0
23/09:00am 8.4 5.0 4.0 74 2.0 NW 11 17 6 9 - - 0.0
23/08:30am 7.9 4.4 3.6 74 1.9 WNW 11 19 6 10 - - 0.0
23/08:00am 8.0 4.4 3.1 71 2.2 NW 11 19 6 10 - - 0.0
23/07:30am 7.5 3.5 2.6 71 2.1 WNW 13 20 7 11 - - 0.0
23/07:00am 7.8 3.7 2.5 69 2.3 WNW 13 19 7 10 - - 0.0
23/06:30am 7.8 4.2 2.7 70 2.2 NW 11 19 6 10 - - 0.0
23/06:00am 7.7 3.6 2.2 68 2.4 NW 13 22 7 12 - - 0.0
23/05:30am 7.8 3.3 2.3 68 2.4 NNW 15 24 8 13 - - 0.0
23/05:00am 7.4 2.9 2.1 69 2.3 NW 15 24 8 13 - - 0.0
23/04:30am 8.0 3.7 3.3 72 2.1 NNW 15 24 8 13 - - 0.0
23/04:00am 8.1 3.6 2.4 67 2.5 NNW 15 24 8 13 - - 0.0
23/03:30am 8.6 4.8 1.7 62 3.0 NW 11 20 6 11 - - 0.0
23/03:00am 8.4 4.3 2.0 64 2.8 NNW 13 20 7 11 - - 0.0
23/02:30am 8.1 4.6 1.0 61 3.0 NNW 9 17 5 9 - - 0.0
23/02:00am 8.3 3.9 0.3 57 3.3 NNW 13 19 7 10 - - 0.0
23/01:30am 9.0 4.9 -0.1 53 3.8 NNW 11 19 6 10 - - 0.0
23/01:00am 9.2 4.7 -0.4 51 4.0 NNW 13 19 7 10 - - 0.0
23/12:30am 9.6 5.5 -0.3 50 4.1 NW 11 20 6 11 - - 0.0
23/12:00am 9.4 5.2 -0.8 49 4.2 NNW 11 17 6 9 - - 0.0
 
Date/Time
CST
Temp
°C
App
Temp
°C
Dew
Point
°C
Rel
Hum
%
Delta-T
°C
Wind Press
QNH
hPa
Press
MSL
hPa
Rain since
9am
mm
Dir  Spd
km/h
Gust
km/h
Spd
kts
Gust
kts
22/11:30pm 9.6 5.5 -0.3 50 4.1 NNW 11 15 6 8 - - 0.0
22/11:00pm 9.6 5.9 0.0 51 4.0 NW 9 15 5 8 - - 0.0
22/10:30pm 10.0 5.9 0.1 50 4.2 NW 11 17 6 9 - - 0.0
22/10:00pm 9.9 6.2 0.0 50 4.1 NNW 9 13 5 7 - - 0.0
22/09:30pm 9.6 6.3 0.2 52 3.9 NNW 7 13 4 7 - - 0.0
22/09:00pm 10.1 6.8 0.4 51 4.1 NNW 7 11 4 6 - - 0.0
22/08:30pm 9.7 6.6 0.1 51 4.0 N 6 9 3 5 - - 0.0

Other Formats:

Comma delimited format used in spreadsheet applications
http://www.bom.gov.au/fwo/IDS60801/IDS60801.95678.axf

JavaScript Object Notation format (JSON) in row-major order
http://www.bom.gov.au/fwo/IDS60801/IDS60801.95678.json